createdAt,value
2023-03-16T00:02:08.361Z,-1.77
2023-03-16T00:04:38.069Z,-1.76
2023-03-16T00:07:06.355Z,-1.77
2023-03-16T00:09:33.176Z,-1.81
2023-03-16T00:12:03.590Z,-1.69
2023-03-16T00:14:31.967Z,-1.72
2023-03-16T00:16:58.812Z,-1.75
2023-03-16T00:19:25.569Z,-1.83
2023-03-16T00:21:53.363Z,-1.78
2023-03-16T00:24:20.447Z,-1.87
2023-03-16T00:26:48.093Z,-1.90
2023-03-16T00:29:15.034Z,-2.12
2023-03-16T00:31:45.522Z,-2.09
2023-03-16T00:34:13.080Z,-2.00
2023-03-16T00:36:39.777Z,-1.99
2023-03-16T00:39:07.113Z,-2.02
2023-03-16T00:41:38.237Z,-2.06
2023-03-16T00:44:05.724Z,-2.10
2023-03-16T00:46:32.837Z,-2.11
2023-03-16T00:48:59.441Z,-2.13
2023-03-16T00:51:26.102Z,-2.10
2023-03-16T00:53:52.799Z,-2.07
2023-03-16T00:56:19.611Z,-2.08
2023-03-16T00:58:46.337Z,-2.20
2023-03-16T01:01:16.922Z,-2.28
2023-03-16T01:03:43.639Z,-2.25
2023-03-16T01:06:17.301Z,-2.29
2023-03-16T01:08:44.371Z,-2.37
2023-03-16T01:11:16.344Z,-2.40
2023-03-16T01:13:44.112Z,-2.62
2023-03-16T01:16:11.196Z,-2.51
2023-03-16T01:18:37.847Z,-2.52
2023-03-16T01:21:08.180Z,-2.60
2023-03-16T01:23:35.687Z,-2.62
2023-03-16T01:26:02.512Z,-2.67
2023-03-16T01:28:31.975Z,-2.64
2023-03-16T01:31:05.959Z,-2.76
2023-03-16T01:33:33.952Z,-2.77
2023-03-16T01:36:07.289Z,-2.79
2023-03-16T01:38:34.092Z,-2.78
2023-03-16T01:41:00.999Z,-2.66
2023-03-16T01:43:29.960Z,-2.72
2023-03-16T01:46:05.699Z,-2.64
2023-03-16T01:48:54.642Z,-2.59
2023-03-16T01:51:37.833Z,-2.70
2023-03-16T01:54:22.080Z,-2.91
2023-03-16T01:56:58.592Z,-2.70
2023-03-16T01:59:32.516Z,-2.71
2023-03-16T02:02:00.118Z,-2.75
2023-03-16T02:04:44.834Z,-2.75
2023-03-16T02:07:16.993Z,-2.84
2023-03-16T02:09:49.449Z,-2.80
2023-03-16T02:12:18.749Z,-2.81
2023-03-16T02:14:46.924Z,-2.82
2023-03-16T02:17:20.341Z,-2.82
2023-03-16T02:20:01.813Z,-2.80
2023-03-16T02:22:28.608Z,-2.91
2023-03-16T02:24:55.309Z,-2.89
2023-03-16T02:27:40.952Z,-2.97
2023-03-16T02:30:14.031Z,-2.99
2023-03-16T02:32:41.796Z,-3.00
2023-03-16T02:35:11.111Z,-3.03
2023-03-16T02:37:37.716Z,-3.11
2023-03-16T02:40:23.798Z,-3.04
2023-03-16T02:43:09.937Z,-3.23
2023-03-16T02:45:49.405Z,-3.11
2023-03-16T02:48:27.134Z,-3.11
2023-03-16T02:50:54.805Z,-3.18
2023-03-16T02:53:21.533Z,-3.06
2023-03-16T02:55:48.422Z,-3.10
2023-03-16T02:58:16.758Z,-3.06
2023-03-16T03:00:43.643Z,-3.12
2023-03-16T03:03:10.467Z,-3.10
2023-03-16T03:05:37.568Z,-3.16
2023-03-16T03:08:05.688Z,-3.19
2023-03-16T03:10:32.597Z,-3.23
2023-03-16T03:12:59.433Z,-3.21
2023-03-16T03:15:26.138Z,-3.32
2023-03-16T03:17:52.970Z,-3.30
2023-03-16T03:20:19.715Z,-3.27
2023-03-16T03:22:48.986Z,-3.26
2023-03-16T03:25:18.485Z,-3.47
2023-03-16T03:27:46.730Z,-3.31
2023-03-16T03:30:16.493Z,-3.33
2023-03-16T03:32:44.211Z,-3.43
2023-03-16T03:35:13.460Z,-3.40
2023-03-16T03:37:42.492Z,-3.56
2023-03-16T03:40:11.455Z,-3.41
2023-03-16T03:42:39.336Z,-3.53
2023-03-16T03:45:07.982Z,-3.40
2023-03-16T03:47:34.962Z,-3.48
2023-03-16T03:50:01.770Z,-3.63
2023-03-16T03:52:28.787Z,-3.37
2023-03-16T03:54:55.379Z,-3.43
2023-03-16T03:57:22.229Z,-3.73
2023-03-16T03:59:49.225Z,-3.52
2023-03-16T04:02:16.354Z,-3.62
2023-03-16T04:04:44.058Z,-3.63
2023-03-16T04:07:11.448Z,-3.44
2023-03-16T04:09:38.036Z,-3.52
2023-03-16T04:12:06.302Z,-3.46
2023-03-16T04:14:33.161Z,-3.46
2023-03-16T04:17:00.181Z,-3.47
2023-03-16T04:19:26.773Z,-3.49
2023-03-16T04:21:53.690Z,-3.42
2023-03-16T04:24:22.501Z,-3.52
2023-03-16T04:26:49.189Z,-3.51
2023-03-16T04:29:19.721Z,-3.63
2023-03-16T04:31:46.915Z,-3.63
2023-03-16T04:34:13.889Z,-3.49
2023-03-16T04:36:41.901Z,-3.56
2023-03-16T04:39:09.400Z,-3.73
2023-03-16T04:41:36.219Z,-3.68
2023-03-16T04:44:02.966Z,-3.91
2023-03-16T04:46:29.769Z,-3.74
2023-03-16T04:48:58.471Z,-3.83
2023-03-16T04:51:26.134Z,-3.67
2023-03-16T04:53:53.018Z,-3.60
2023-03-16T04:56:21.423Z,-3.64
2023-03-16T04:58:49.826Z,-3.73
2023-03-16T05:01:18.717Z,-3.67
2023-03-16T05:03:46.530Z,-3.72
2023-03-16T05:06:13.095Z,-3.78
2023-03-16T05:08:39.739Z,-3.70
2023-03-16T05:11:06.551Z,-3.58
2023-03-16T05:13:33.545Z,-3.62
2023-03-16T05:16:00.890Z,-3.68
2023-03-16T05:18:27.593Z,-3.73
2023-03-16T05:20:58.207Z,-3.61
2023-03-16T05:23:24.843Z,-3.28
2023-03-16T05:25:51.621Z,-3.14
2023-03-16T05:28:18.323Z,-3.00
2023-03-16T05:30:48.148Z,-2.65
2023-03-16T05:33:14.911Z,-2.49
2023-03-16T05:35:41.577Z,-2.24
2023-03-16T05:38:09.996Z,-1.95
2023-03-16T05:40:37.479Z,-1.67
2023-03-16T05:43:04.628Z,-1.41
2023-03-16T05:45:31.473Z,-1.30
2023-03-16T05:47:58.257Z,-1.10
2023-03-16T05:50:26.697Z,-0.94
2023-03-16T05:52:54.324Z,-0.59
2023-03-16T05:55:21.112Z,-0.09
2023-03-16T05:57:47.714Z,0.14
2023-03-16T06:00:16.401Z,0.36
2023-03-16T06:02:48.563Z,0.66
2023-03-16T06:05:16.664Z,0.79
2023-03-16T06:07:43.777Z,1.12
2023-03-16T06:10:11.745Z,1.34
2023-03-16T06:12:38.544Z,1.36
2023-03-16T06:15:10.468Z,1.29
2023-03-16T06:17:38.416Z,1.50
2023-03-16T06:20:11.425Z,1.85
2023-03-16T06:22:40.090Z,1.95
2023-03-16T06:25:08.109Z,1.89
2023-03-16T06:27:34.765Z,2.08
2023-03-16T06:30:01.679Z,2.36
2023-03-16T06:32:30.365Z,2.63
2023-03-16T06:34:59.676Z,2.98
2023-03-16T06:37:26.235Z,3.31
2023-03-16T06:39:52.741Z,3.56
2023-03-16T06:42:19.646Z,3.69
2023-03-16T06:44:46.253Z,3.71
2023-03-16T06:47:13.589Z,3.81
2023-03-16T06:49:40.489Z,3.78
2023-03-16T06:52:07.084Z,3.71
2023-03-16T06:54:35.347Z,3.48
2023-03-16T06:57:02.218Z,3.62
2023-03-16T06:59:28.950Z,3.79
2023-03-16T07:01:55.741Z,3.73
2023-03-16T07:04:22.461Z,3.91
2023-03-16T07:06:49.450Z,3.92
2023-03-16T07:09:15.957Z,4.00
2023-03-16T07:11:42.745Z,4.23
2023-03-16T07:14:09.460Z,4.47
2023-03-16T07:16:37.247Z,4.67
2023-03-16T07:19:03.848Z,4.72
2023-03-16T07:21:32.301Z,4.96
2023-03-16T07:24:00.265Z,5.14
2023-03-16T07:26:27.013Z,5.13
2023-03-16T07:28:53.646Z,5.27
2023-03-16T07:31:20.320Z,5.32
2023-03-16T07:33:47.031Z,5.26
2023-03-16T07:36:13.622Z,5.26
2023-03-16T07:38:40.394Z,5.31
2023-03-16T07:41:07.158Z,5.27
2023-03-16T07:43:34.509Z,5.27
2023-03-16T07:46:02.347Z,5.17
2023-03-16T07:48:29.081Z,5.11
2023-03-16T07:50:55.632Z,4.97
2023-03-16T07:53:22.754Z,4.86
2023-03-16T07:55:49.652Z,4.65
2023-03-16T07:58:16.317Z,4.84
2023-03-16T08:00:42.961Z,5.05
2023-03-16T08:03:10.160Z,5.18
2023-03-16T08:05:36.764Z,5.45
2023-03-16T08:08:03.428Z,5.75
2023-03-16T08:10:31.490Z,5.76
2023-03-16T08:12:58.345Z,5.76
2023-03-16T08:15:25.147Z,5.83
2023-03-16T08:17:52.645Z,5.85
2023-03-16T08:20:19.423Z,5.77
2023-03-16T08:22:46.941Z,5.81
2023-03-16T08:25:14.966Z,5.94
2023-03-16T08:27:43.161Z,5.98
2023-03-16T08:30:11.942Z,6.06
2023-03-16T08:32:41.155Z,5.91
2023-03-16T08:35:10.245Z,5.89
2023-03-16T08:37:38.993Z,5.71
2023-03-16T08:40:14.236Z,5.85
2023-03-16T08:42:43.212Z,5.89
2023-03-16T08:45:13.785Z,5.93
2023-03-16T08:47:41.492Z,5.69
2023-03-16T08:50:10.109Z,5.68
2023-03-16T08:52:36.763Z,6.00
2023-03-16T08:55:07.393Z,5.93
2023-03-16T08:57:34.680Z,5.93
2023-03-16T09:00:01.764Z,5.91
2023-03-16T09:02:29.168Z,5.75
2023-03-16T09:04:56.454Z,5.92
2023-03-16T09:07:23.110Z,6.17
2023-03-16T09:09:50.934Z,5.98
2023-03-16T09:12:17.644Z,5.75
2023-03-16T09:14:46.076Z,6.16
2023-03-16T09:17:13.015Z,6.59
2023-03-16T09:19:51.245Z,6.64
2023-03-16T09:22:19.964Z,6.60
2023-03-16T09:24:47.546Z,6.27
2023-03-16T09:27:15.407Z,5.58
2023-03-16T09:29:42.986Z,5.26
2023-03-16T09:32:09.976Z,5.02
2023-03-16T09:34:36.783Z,4.71
2023-03-16T09:37:03.860Z,4.20
2023-03-16T09:39:48.705Z,3.64
2023-03-16T09:42:35.458Z,4.10
2023-03-16T09:45:32.323Z,4.12
2023-03-16T09:48:03.745Z,4.07
2023-03-16T09:50:48.463Z,4.35
2023-03-16T09:53:28.700Z,4.89
2023-03-16T09:56:01.387Z,5.17
2023-03-16T09:58:28.575Z,5.28
2023-03-16T10:01:01.280Z,5.53
2023-03-16T10:04:09.808Z,5.47
2023-03-16T10:06:55.403Z,5.28
2023-03-16T10:09:33.248Z,5.41
2023-03-16T10:12:02.774Z,5.16
2023-03-16T10:14:53.712Z,4.89
2023-03-16T10:17:43.359Z,4.63
2023-03-16T10:20:17.782Z,4.44
2023-03-16T10:22:47.063Z,4.24
2023-03-16T10:25:31.678Z,4.19
2023-03-16T10:28:01.573Z,4.22
2023-03-16T10:30:36.456Z,4.29
2023-03-16T10:33:18.332Z,4.37
2023-03-16T10:35:51.394Z,4.46
2023-03-16T10:38:40.553Z,4.47
2023-03-16T10:41:23.150Z,4.43
2023-03-16T10:44:07.370Z,4.47
2023-03-16T10:46:48.754Z,4.54
2023-03-16T10:49:49.263Z,4.60
2023-03-16T10:52:34.538Z,4.60
2023-03-16T10:55:11.060Z,4.69
2023-03-16T10:57:42.787Z,4.64
2023-03-16T11:00:17.001Z,4.69
2023-03-16T11:02:44.200Z,4.59
2023-03-16T11:05:19.570Z,4.84
2023-03-16T11:07:50.991Z,4.87
2023-03-16T11:10:36.136Z,4.71
2023-03-16T11:13:14.815Z,4.49
2023-03-16T11:15:52.108Z,4.35
2023-03-16T11:18:31.377Z,4.41
2023-03-16T11:21:08.366Z,4.71
2023-03-16T11:23:39.405Z,5.27
2023-03-16T11:26:15.464Z,5.69
2023-03-16T11:28:48.786Z,5.43
2023-03-16T11:31:43.195Z,5.25
2023-03-16T11:34:16.222Z,5.06
2023-03-16T11:36:57.802Z,4.74
2023-03-16T11:39:50.754Z,4.91
2023-03-16T11:43:08.637Z,5.05
2023-03-16T11:45:48.414Z,5.13
2023-03-16T11:48:40.425Z,5.18
2023-03-16T11:51:21.170Z,5.17
2023-03-16T11:54:07.975Z,5.17
2023-03-16T11:56:42.789Z,5.29
2023-03-16T11:59:30.002Z,5.43
2023-03-16T12:02:23.273Z,5.38
2023-03-16T12:05:17.841Z,5.56
2023-03-16T12:08:04.461Z,5.89
2023-03-16T12:10:57.961Z,6.15
2023-03-16T12:13:38.991Z,5.91
2023-03-16T12:16:15.580Z,5.74
2023-03-16T12:19:31.760Z,5.79
2023-03-16T12:22:07.948Z,5.85
2023-03-16T12:24:42.648Z,5.94
2023-03-16T12:27:19.239Z,5.71
2023-03-16T12:29:59.815Z,5.57
2023-03-16T12:32:38.947Z,5.62
2023-03-16T12:35:18.468Z,5.92
2023-03-16T12:38:07.958Z,6.01
2023-03-16T12:40:50.896Z,6.12
2023-03-16T12:43:39.555Z,5.84
2023-03-16T12:46:18.729Z,5.46
2023-03-16T12:48:49.533Z,5.18
2023-03-16T12:51:16.304Z,5.05
2023-03-16T12:53:52.399Z,5.11
2023-03-16T12:56:30.992Z,5.24
2023-03-16T12:59:03.500Z,5.49
2023-03-16T13:01:38.118Z,5.62
2023-03-16T13:04:20.522Z,5.79
2023-03-16T13:06:52.853Z,5.71
2023-03-16T13:09:25.431Z,5.74
2023-03-16T13:11:53.430Z,5.55
2023-03-16T13:14:38.486Z,5.23
2023-03-16T13:17:07.195Z,4.99
2023-03-16T13:19:37.912Z,5.01
2023-03-16T13:22:19.976Z,4.95
2023-03-16T13:25:00.097Z,5.02
2023-03-16T13:27:34.528Z,5.06
2023-03-16T13:30:13.932Z,4.97
2023-03-16T13:32:40.891Z,4.86
2023-03-16T13:35:13.479Z,4.91
2023-03-16T13:37:43.843Z,5.02
2023-03-16T13:40:27.920Z,5.31
2023-03-16T13:42:58.464Z,5.57
2023-03-16T13:45:37.755Z,5.70
2023-03-16T13:48:05.629Z,5.68
2023-03-16T13:50:33.969Z,5.67
2023-03-16T13:53:04.805Z,5.49
2023-03-16T13:55:36.872Z,5.47
2023-03-16T13:58:04.864Z,5.37
2023-03-16T14:00:37.531Z,5.35
2023-03-16T14:03:20.255Z,5.37
2023-03-16T14:05:51.088Z,5.33
2023-03-16T14:08:23.743Z,5.37
2023-03-16T14:10:52.102Z,5.39
2023-03-16T14:13:28.407Z,5.60
2023-03-16T14:16:19.933Z,5.55
2023-03-16T14:18:52.371Z,5.38
2023-03-16T14:21:28.247Z,5.42
2023-03-16T14:23:59.296Z,5.31
2023-03-16T14:26:27.156Z,5.38
2023-03-16T14:28:57.551Z,5.45
2023-03-16T14:31:31.555Z,5.60
2023-03-16T14:34:07.638Z,5.48
2023-03-16T14:36:38.916Z,5.44
2023-03-16T14:39:19.700Z,5.32
2023-03-16T14:41:51.421Z,4.86
2023-03-16T14:44:24.990Z,5.26
2023-03-16T14:46:57.142Z,5.16
2023-03-16T14:49:23.738Z,5.26
2023-03-16T14:51:52.868Z,5.26
2023-03-16T14:54:24.515Z,5.23
2023-03-16T14:56:54.342Z,5.12
2023-03-16T14:59:21.807Z,4.98
2023-03-16T15:01:50.570Z,4.99
2023-03-16T15:04:31.376Z,5.03
2023-03-16T15:06:58.870Z,5.11
2023-03-16T15:09:57.402Z,5.08
2023-03-16T15:12:26.249Z,5.09
2023-03-16T15:15:11.577Z,5.11
2023-03-16T15:17:39.082Z,5.15
2023-03-16T15:20:07.304Z,5.11
2023-03-16T15:22:37.789Z,5.14
2023-03-16T15:25:25.154Z,5.10
2023-03-16T15:27:53.881Z,5.01
2023-03-16T15:30:25.880Z,4.96
2023-03-16T15:32:53.130Z,4.86
2023-03-16T15:35:20.698Z,4.77
2023-03-16T15:37:47.969Z,4.75
2023-03-16T15:40:17.651Z,4.75
2023-03-16T15:42:46.884Z,4.67
2023-03-16T15:45:17.668Z,4.64
2023-03-16T15:47:44.829Z,4.66
2023-03-16T15:50:12.868Z,4.61
2023-03-16T15:52:42.212Z,4.46
2023-03-16T15:55:25.032Z,4.46
2023-03-16T15:58:00.057Z,4.36
2023-03-16T16:00:37.566Z,4.37
2023-03-16T16:03:06.751Z,4.30
2023-03-16T16:05:33.836Z,4.18
2023-03-16T16:08:00.760Z,3.94
2023-03-16T16:10:28.788Z,3.76
2023-03-16T16:12:57.025Z,3.80
2023-03-16T16:15:27.490Z,3.69
2023-03-16T16:18:19.102Z,3.72
2023-03-16T16:20:41.252Z,3.61
2023-03-16T16:23:10.512Z,3.47
2023-03-16T16:25:41.519Z,3.40
2023-03-16T16:28:24.706Z,3.01
2023-03-16T16:30:52.454Z,3.26
2023-03-16T16:33:34.912Z,3.26
2023-03-16T16:36:05.110Z,3.00
2023-03-16T16:38:32.488Z,3.11
2023-03-16T16:41:06.983Z,3.02
2023-03-16T16:43:47.760Z,2.92
2023-03-16T16:46:17.706Z,2.88
2023-03-16T16:48:47.200Z,2.72
2023-03-16T16:51:33.289Z,2.62
2023-03-16T16:54:01.208Z,2.57
2023-03-16T16:56:33.717Z,2.37
2023-03-16T16:59:11.127Z,2.33
2023-03-16T17:01:38.147Z,1.91
2023-03-16T17:04:13.555Z,1.97
2023-03-16T17:06:40.317Z,1.63
2023-03-16T17:09:08.949Z,1.58
2023-03-16T17:11:37.548Z,1.65
2023-03-16T17:14:07.791Z,1.59
2023-03-16T17:16:37.067Z,1.42
2023-03-16T17:19:04.321Z,1.30
2023-03-16T17:21:32.029Z,1.30
2023-03-16T17:24:00.367Z,1.29
2023-03-16T17:26:35.959Z,1.06
2023-03-16T17:29:06.717Z,1.16
2023-03-16T17:31:37.052Z,0.75
2023-03-16T17:34:19.856Z,0.76
2023-03-16T17:36:47.043Z,0.64
2023-03-16T17:39:21.203Z,0.71
2023-03-16T17:41:56.172Z,0.55
2023-03-16T17:44:23.987Z,0.44
2023-03-16T17:46:51.368Z,0.35
2023-03-16T17:49:20.158Z,0.39
2023-03-16T17:51:48.335Z,-0.25
2023-03-16T17:54:15.104Z,0.25
2023-03-16T17:56:42.328Z,-0.06
2023-03-16T17:59:27.800Z,0.10
2023-03-16T18:01:56.392Z,0.00
2023-03-16T18:04:25.950Z,-0.09
2023-03-16T18:06:52.912Z,-0.33
2023-03-16T18:09:20.597Z,-0.48
2023-03-16T18:11:50.058Z,-0.33
2023-03-16T18:14:39.964Z,-0.44
2023-03-16T18:17:31.880Z,-0.73
2023-03-16T18:19:59.466Z,-0.58
2023-03-16T18:22:28.137Z,-0.56
2023-03-16T18:24:55.329Z,-0.84
2023-03-16T18:27:23.109Z,-0.72
2023-03-16T18:29:50.047Z,-0.99
2023-03-16T18:32:24.735Z,-0.79
2023-03-16T18:34:52.859Z,-0.78
2023-03-16T18:37:24.011Z,-0.76
2023-03-16T18:39:52.805Z,-0.90
2023-03-16T18:42:25.923Z,-1.13
2023-03-16T18:44:52.677Z,-0.94
2023-03-16T18:47:24.034Z,-1.21
2023-03-16T18:49:54.137Z,-1.20
2023-03-16T18:52:23.157Z,-1.11
2023-03-16T18:54:51.566Z,-1.16
2023-03-16T18:57:23.917Z,-1.47
2023-03-16T18:59:51.254Z,-1.27
2023-03-16T19:02:39.395Z,-1.23
2023-03-16T19:05:37.062Z,-1.22
2023-03-16T19:08:05.367Z,-1.36
2023-03-16T19:10:36.717Z,-1.42
2023-03-16T19:13:04.726Z,-1.51
2023-03-16T19:15:33.957Z,-1.54
2023-03-16T19:18:00.914Z,-1.69
2023-03-16T19:20:30.653Z,-1.47
2023-03-16T19:23:06.905Z,-1.42
2023-03-16T19:25:39.082Z,-1.45
2023-03-16T19:28:12.575Z,-1.49
2023-03-16T19:30:39.187Z,-1.46
2023-03-16T19:33:22.470Z,-1.56
2023-03-16T19:35:52.170Z,-1.72
2023-03-16T19:38:20.323Z,-1.75
2023-03-16T19:40:52.085Z,-1.90
2023-03-16T19:43:21.988Z,-1.94
2023-03-16T19:45:49.894Z,-1.71
2023-03-16T19:48:22.963Z,-1.85
2023-03-16T19:50:53.263Z,-1.75
2023-03-16T19:53:24.203Z,-1.77
2023-03-16T19:55:54.728Z,-2.02
2023-03-16T19:58:35.617Z,-1.73
2023-03-16T20:01:05.993Z,-1.77
2023-03-16T20:03:42.622Z,-1.79
2023-03-16T20:06:29.475Z,-1.81
2023-03-16T20:08:56.392Z,-1.95
2023-03-16T20:11:31.009Z,-1.96
2023-03-16T20:13:59.136Z,-1.89
2023-03-16T20:16:29.166Z,-1.86
2023-03-16T20:18:58.462Z,-1.96
2023-03-16T20:21:25.930Z,-1.89
2023-03-16T20:23:53.572Z,-2.00
2023-03-16T20:26:23.637Z,-2.19
2023-03-16T20:28:51.987Z,-2.14
2023-03-16T20:31:25.811Z,-2.08
2023-03-16T20:33:53.928Z,-2.09
2023-03-16T20:36:22.671Z,-2.29
2023-03-16T20:38:50.399Z,-2.22
2023-03-16T20:41:28.284Z,-2.19
2023-03-16T20:43:58.669Z,-2.24
2023-03-16T20:46:29.198Z,-2.35
2023-03-16T20:48:57.618Z,-2.31
2023-03-16T20:51:25.298Z,-2.38
2023-03-16T20:53:52.607Z,-2.53
2023-03-16T20:56:22.417Z,-2.19
2023-03-16T20:58:51.769Z,-2.19
2023-03-16T21:01:21.525Z,-2.37
2023-03-16T21:03:50.769Z,-2.24
2023-03-16T21:06:26.157Z,-2.42
2023-03-16T21:08:54.453Z,-2.39
2023-03-16T21:11:34.936Z,-2.39
2023-03-16T21:14:02.184Z,-2.49
2023-03-16T21:16:29.361Z,-2.46
2023-03-16T21:18:56.153Z,-2.59
2023-03-16T21:21:23.273Z,-2.77
2023-03-16T21:23:49.910Z,-2.51
2023-03-16T21:26:20.344Z,-2.57
2023-03-16T21:28:55.865Z,-2.64
2023-03-16T21:31:23.177Z,-2.52
2023-03-16T21:33:51.383Z,-2.48
2023-03-16T21:36:22.033Z,-2.66
2023-03-16T21:38:50.280Z,-2.88
2023-03-16T21:41:17.807Z,-3.06
2023-03-16T21:43:45.124Z,-2.88
2023-03-16T21:46:21.531Z,-3.10
2023-03-16T21:48:50.919Z,-3.07
2023-03-16T21:51:20.941Z,-3.25
2023-03-16T21:53:49.341Z,-3.30
2023-03-16T21:56:22.875Z,-3.51
2023-03-16T21:58:50.213Z,-3.44
2023-03-16T22:01:29.617Z,-3.29
2023-03-16T22:04:09.056Z,-3.30
2023-03-16T22:06:36.144Z,-3.34
2023-03-16T22:09:04.171Z,-3.40
2023-03-16T22:11:31.448Z,-3.58
2023-03-16T22:13:59.600Z,-3.40
2023-03-16T22:16:28.787Z,-3.37
2023-03-16T22:18:58.042Z,-3.43
2023-03-16T22:21:27.855Z,-3.38
2023-03-16T22:23:56.128Z,-3.36
2023-03-16T22:26:23.634Z,-3.44
2023-03-16T22:28:51.002Z,-3.94
2023-03-16T22:31:21.200Z,-3.58
2023-03-16T22:33:49.518Z,-3.37
2023-03-16T22:36:21.603Z,-3.34
2023-03-16T22:39:12.406Z,-3.32
2023-03-16T22:41:39.130Z,-3.40
2023-03-16T22:44:17.313Z,-3.43
2023-03-16T22:46:44.039Z,-3.67
2023-03-16T22:49:28.946Z,-3.64
2023-03-16T22:51:57.587Z,-3.65
2023-03-16T22:54:28.790Z,-3.67
2023-03-16T22:56:55.657Z,-3.72
2023-03-16T22:59:25.290Z,-3.98
2023-03-16T23:01:52.152Z,-4.06
2023-03-16T23:04:22.004Z,-4.06
2023-03-16T23:06:50.212Z,-3.84
2023-03-16T23:09:18.464Z,-3.77
2023-03-16T23:11:47.352Z,-3.82
2023-03-16T23:14:17.025Z,-3.82
2023-03-16T23:16:44.563Z,-4.05
2023-03-16T23:19:25.344Z,-3.89
2023-03-16T23:21:55.203Z,-3.97
2023-03-16T23:24:22.515Z,-3.98
2023-03-16T23:26:50.432Z,-4.13
2023-03-16T23:29:17.831Z,-4.01
2023-03-16T23:31:44.457Z,-4.34
2023-03-16T23:34:16.718Z,-4.28
2023-03-16T23:36:46.526Z,-4.30
2023-03-16T23:39:13.640Z,-4.41
2023-03-16T23:41:44.024Z,-4.29
2023-03-16T23:44:17.927Z,-4.34
2023-03-16T23:46:44.796Z,-4.65
2023-03-16T23:49:19.464Z,-4.51
2023-03-16T23:51:46.628Z,-4.84
2023-03-16T23:54:23.290Z,-4.66
2023-03-16T23:56:51.568Z,-4.72
2023-03-16T23:59:21.063Z,-4.48
